Time;durP1;ratioP1;P1;durP2;ratioP2;P2;SDS_P1;SDS_P2;PMS_P1;PMS_P2;Temp;Humidity;BMP_temperature;BMP_pressure;BME280_temperature;BME280_humidity;BME280_pressure;Samples;Min_cycle;Max_cycle;Signal;HPM_P1;HPM_P2
2023/05/18 00:01:09;;;;;;;2.20;1.50;;;8.10;61.90;;;;;;4978499;28;20042;-76
2023/05/18 00:03:34;;;;;;;4.32;1.73;;;8.10;62.00;;;;;;4962161;28;20699;-76
2023/05/18 00:06:03;;;;;;;4.07;1.73;;;8.10;62.20;;;;;;4991161;28;20041;-75
2023/05/18 00:08:33;;;;;;;3.83;1.42;;;8.00;62.30;;;;;;4978873;28;20404;-75
2023/05/18 00:10:59;;;;;;;3.15;1.23;;;8.00;62.70;;;;;;4960327;28;20092;-75
2023/05/18 00:13:24;;;;;;;4.72;1.63;;;8.00;62.40;;;;;;4994806;28;20053;-75
2023/05/18 00:15:51;;;;;;;4.85;1.70;;;7.90;62.50;;;;;;4993218;28;20034;-75
2023/05/18 00:18:17;;;;;;;4.65;1.42;;;7.90;62.60;;;;;;4993870;28;20041;-75
2023/05/18 00:20:42;;;;;;;6.93;1.67;;;7.80;62.70;;;;;;4993951;28;20030;-75
2023/05/18 00:23:09;;;;;;;3.28;1.58;;;7.80;62.80;;;;;;4993443;28;20037;-75
2023/05/18 00:25:35;;;;;;;4.43;1.80;;;7.80;62.90;;;;;;4978281;28;20037;-76
2023/05/18 00:28:00;;;;;;;4.55;1.33;;;7.70;63.10;;;;;;4979823;28;20083;-75
2023/05/18 00:30:26;;;;;;;5.47;1.50;;;7.70;63.10;;;;;;4998422;28;20061;-75
2023/05/18 00:32:51;;;;;;;3.55;1.50;;;7.60;63.10;;;;;;4995061;28;20041;-75
2023/05/18 00:35:17;;;;;;;3.72;1.48;;;7.60;63.20;;;;;;4999260;28;20595;-76
2023/05/18 00:37:42;;;;;;;4.53;1.67;;;7.60;63.30;;;;;;4995327;28;20718;-75
2023/05/18 00:40:09;;;;;;;3.83;1.70;;;7.60;63.40;;;;;;4997612;28;20045;-75
2023/05/18 00:42:34;;;;;;;3.00;1.45;;;7.50;63.50;;;;;;4981367;28;20407;-76
2023/05/18 00:45:00;;;;;;;6.13;1.50;;;7.50;63.70;;;;;;4982108;28;20488;-75
2023/05/18 00:47:26;;;;;;;4.30;1.30;;;7.50;63.80;;;;;;4986922;28;20538;-75
2023/05/18 00:49:51;;;;;;;3.20;1.40;;;7.40;63.80;;;;;;4981367;28;20140;-75
2023/05/18 00:52:17;;;;;;;6.30;1.50;;;7.40;64.00;;;;;;4997652;28;20038;-75
2023/05/18 00:54:43;;;;;;;7.88;1.77;;;7.40;64.10;;;;;;5008144;28;20033;-75
2023/05/18 00:57:08;;;;;;;7.65;1.50;;;7.30;64.00;;;;;;4978427;28;20034;-76
2023/05/18 00:59:34;;;;;;;5.95;1.50;;;7.30;64.10;;;;;;5005803;28;20045;-75
2023/05/18 01:02:00;;;;;;;4.60;1.65;;;7.30;64.30;;;;;;4983755;28;20033;-75
2023/05/18 01:04:26;;;;;;;3.92;1.60;;;7.20;64.30;;;;;;4996112;28;20061;-76
2023/05/18 01:06:55;;;;;;;6.07;1.50;;;7.20;64.40;;;;;;5012618;28;20038;-75
2023/05/18 01:09:20;;;;;;;3.40;1.58;;;7.20;64.60;;;;;;5012680;28;20029;-75
2023/05/18 01:12:01;;;;;;;3.20;1.35;;;7.20;64.60;;;;;;4996508;28;20049;-76
2023/05/18 01:14:35;;;;;;;9.13;2.38;;;7.10;65.70;;;;;;4997793;28;20389;-76
2023/05/18 01:17:20;;;;;;;4.40;1.42;;;7.10;64.80;;;;;;4995043;28;20732;-75
2023/05/18 01:19:45;;;;;;;6.40;1.80;;;7.00;64.80;;;;;;5011127;28;20040;-75
2023/05/18 01:22:45;;;;;;;2.58;1.58;;;7.00;64.90;;;;;;5004590;28;20031;-75
2023/05/18 01:25:35;;;;;;;4.60;1.58;;;7.00;65.40;;;;;;5006961;28;20050;-75
2023/05/18 01:28:05;;;;;;;3.75;1.40;;;6.90;65.40;;;;;;5013010;28;20041;-75
2023/05/18 01:30:32;;;;;;;3.38;1.63;;;6.90;65.10;;;;;;4995651;28;20763;-75
2023/05/18 01:32:58;;;;;;;2.60;1.50;;;6.80;65.30;;;;;;5007181;28;20041;-76
2023/05/18 01:35:23;;;;;;;4.00;1.60;;;6.80;65.40;;;;;;4974957;28;20034;-75
2023/05/18 01:37:49;;;;;;;3.00;1.48;;;6.80;65.60;;;;;;4979717;28;20093;-76
2023/05/18 01:40:14;;;;;;;4.15;1.50;;;6.80;65.70;;;;;;5013227;28;20544;-76
2023/05/18 01:42:44;;;;;;;6.13;1.48;;;6.70;65.70;;;;;;5011834;28;20065;-75
2023/05/18 01:45:19;;;;;;;1.95;1.35;;;6.70;65.80;;;;;;5006167;28;20029;-76
2023/05/18 01:47:45;;;;;;;2.33;1.35;;;6.70;66.20;;;;;;5005430;28;20041;-74
2023/05/18 01:50:18;;;;;;;5.32;1.55;;;6.60;65.90;;;;;;4993573;28;20414;-76
2023/05/18 01:52:59;;;;;;;2.72;1.77;;;6.60;66.20;;;;;;4971613;28;20617;-76
2023/05/18 01:55:25;;;;;;;7.53;2.05;;;6.60;66.20;;;;;;4945950;28;20051;-76
2023/05/18 01:57:51;;;;;;;3.90;1.40;;;6.60;66.20;;;;;;4949574;28;20058;-75
2023/05/18 02:00:17;;;;;;;6.28;2.65;;;6.50;66.20;;;;;;4949769;28;21677;-75
2023/05/18 02:02:43;;;;;;;5.95;1.33;;;6.50;66.30;;;;;;4971545;28;20146;-75
2023/05/18 02:05:11;;;;;;;3.47;1.30;;;6.50;66.40;;;;;;4961265;28;20054;-76
2023/05/18 02:07:38;;;;;;;6.82;1.67;;;6.50;66.50;;;;;;4958972;28;20483;-76
2023/05/18 02:10:04;;;;;;;3.83;1.40;;;6.50;66.60;;;;;;4989575;28;20034;-74
2023/05/18 02:12:30;;;;;;;4.68;1.63;;;6.40;66.70;;;;;;4995680;28;20045;-75
2023/05/18 02:14:57;;;;;;;5.28;1.73;;;6.40;66.70;;;;;;4997304;28;20864;-75
2023/05/18 02:17:25;;;;;;;5.97;1.30;;;6.40;66.90;;;;;;4993240;28;20041;-75
2023/05/18 02:19:50;;;;;;;6.00;1.55;;;6.40;67.00;;;;;;4991782;28;20496;-75
2023/05/18 02:22:16;;;;;;;4.57;1.75;;;6.30;67.00;;;;;;4996069;28;20038;-75
2023/05/18 02:24:41;;;;;;;4.45;1.92;;;6.30;67.00;;;;;;4995310;28;20049;-75
2023/05/18 02:27:07;;;;;;;2.30;1.77;;;6.30;67.20;;;;;;4994504;28;20058;-76
2023/05/18 02:29:32;;;;;;;3.88;1.70;;;6.20;67.20;;;;;;4992119;28;20038;-75
2023/05/18 02:31:58;;;;;;;3.80;1.52;;;6.20;67.30;;;;;;4972959;28;20042;-75
2023/05/18 02:34:23;;;;;;;2.97;1.73;;;6.30;67.50;;;;;;4962232;28;20663;-76
2023/05/18 02:36:49;;;;;;;3.20;1.60;;;6.20;67.50;;;;;;4975275;28;20076;-76
2023/05/18 02:39:15;;;;;;;5.35;1.75;;;6.20;67.60;;;;;;4992263;28;20042;-75
2023/05/18 02:41:40;;;;;;;6.88;1.50;;;6.10;67.70;;;;;;4992793;28;20068;-75
2023/05/18 02:44:06;;;;;;;8.45;2.10;;;6.10;67.70;;;;;;4994169;28;20117;-75
2023/05/18 02:46:32;;;;;;;7.93;1.85;;;6.10;67.80;;;;;;4994741;28;20065;-75
2023/05/18 02:48:57;;;;;;;3.88;1.88;;;6.10;67.90;;;;;;4977620;28;20038;-75
2023/05/18 02:51:23;;;;;;;3.10;1.63;;;6.10;68.80;;;;;;4999946;28;20073;-75
2023/05/18 02:53:49;;;;;;;3.60;2.03;;;6.00;68.00;;;;;;4990662;28;20125;-76
2023/05/18 02:56:16;;;;;;;4.78;1.63;;;6.00;68.00;;;;;;4991288;28;20125;-75
2023/05/18 02:58:42;;;;;;;3.92;1.70;;;6.00;68.20;;;;;;4995260;28;20034;-76
2023/05/18 03:01:08;;;;;;;6.57;2.00;;;6.00;68.20;;;;;;4995419;28;20804;-75
2023/05/18 03:03:33;;;;;;;2.55;1.40;;;6.00;68.40;;;;;;5002298;28;20044;-75
2023/05/18 03:06:02;;;;;;;4.38;1.95;;;5.90;68.40;;;;;;5010203;28;20787;-76
2023/05/18 03:08:30;;;;;;;4.45;1.90;;;5.90;68.40;;;;;;4995747;28;20034;-75
2023/05/18 03:10:55;;;;;;;4.32;1.60;;;5.90;68.60;;;;;;5011911;28;20042;-76
2023/05/18 03:13:21;;;;;;;3.60;1.45;;;5.90;68.60;;;;;;5012689;28;20095;-75
2023/05/18 03:15:48;;;;;;;4.97;1.83;;;5.90;68.70;;;;;;5013996;28;20041;-75
2023/05/18 03:18:13;;;;;;;5.75;1.77;;;5.90;68.80;;;;;;5014040;28;20044;-75
2023/05/18 03:20:39;;;;;;;4.90;1.67;;;5.90;68.90;;;;;;5012504;28;20033;-76
2023/05/18 03:23:05;;;;;;;3.38;1.63;;;5.90;69.00;;;;;;5001322;28;20686;-75
2023/05/18 03:25:31;;;;;;;3.08;1.50;;;5.80;69.00;;;;;;5001034;28;20037;-75
2023/05/18 03:27:57;;;;;;;3.95;1.75;;;5.80;69.10;;;;;;4999804;28;20034;-76
2023/05/18 03:30:23;;;;;;;6.45;1.80;;;5.80;69.20;;;;;;5015540;28;20026;-75
2023/05/18 03:32:48;;;;;;;2.80;1.30;;;5.80;69.30;;;;;;5015959;28;20052;-76
2023/05/18 03:35:14;;;;;;;4.97;2.00;;;5.70;69.30;;;;;;5012225;28;20033;-75
2023/05/18 03:37:39;;;;;;;2.40;1.50;;;5.80;69.50;;;;;;4998624;28;20065;-76
2023/05/18 03:40:13;;;;;;;3.03;1.48;;;5.70;69.40;;;;;;5016666;28;20633;-76
2023/05/18 03:42:39;;;;;;;3.20;1.95;;;5.80;69.80;;;;;;5017003;28;20041;-75
2023/05/18 03:45:05;;;;;;;3.58;1.70;;;5.70;69.50;;;;;;5009953;28;20416;-76
2023/05/18 03:47:31;;;;;;;4.22;1.85;;;5.70;69.60;;;;;;5002158;28;20042;-75
2023/05/18 03:49:56;;;;;;;5.95;1.85;;;5.70;69.70;;;;;;4992491;28;20091;-76
2023/05/18 03:52:22;;;;;;;3.60;1.65;;;5.70;69.80;;;;;;5013392;28;20149;-76
2023/05/18 03:54:48;;;;;;;3.67;1.60;;;5.70;69.80;;;;;;5015852;28;20096;-76
2023/05/18 03:57:17;;;;;;;2.05;1.50;;;5.70;70.50;;;;;;5010863;28;20495;-76
2023/05/18 03:59:43;;;;;;;5.00;1.50;;;5.70;70.10;;;;;;4999891;28;20049;-75
2023/05/18 04:02:10;;;;;;;3.92;1.73;;;5.70;70.10;;;;;;5014263;28;20054;-75
2023/05/18 04:04:35;;;;;;;2.60;1.70;;;5.60;70.20;;;;;;5013510;28;20041;-76
2023/05/18 04:07:01;;;;;;;3.72;1.77;;;5.70;70.30;;;;;;5014653;28;20095;-75
2023/05/18 04:09:28;;;;;;;3.75;1.77;;;5.60;70.30;;;;;;4994893;28;20041;-76
2023/05/18 04:11:53;;;;;;;5.13;1.70;;;5.60;70.40;;;;;;4999156;28;20061;-76
2023/05/18 04:14:19;;;;;;;4.32;1.90;;;5.60;70.60;;;;;;4984540;28;20128;-75
2023/05/18 04:16:45;;;;;;;4.50;1.77;;;5.60;70.70;;;;;;5016126;28;20041;-75
2023/05/18 04:19:12;;;;;;;5.20;1.75;;;5.70;70.80;;;;;;4997419;28;20049;-75
2023/05/18 04:21:38;;;;;;;5.65;1.80;;;5.70;70.90;;;;;;4976917;28;20563;-75
2023/05/18 04:24:05;;;;;;;4.47;1.70;;;5.70;71.00;;;;;;5011893;28;20447;-76
2023/05/18 04:26:35;;;;;;;4.57;1.77;;;5.70;71.10;;;;;;5010231;28;20052;-75
2023/05/18 04:29:01;;;;;;;3.35;1.80;;;5.70;71.40;;;;;;5010956;28;20041;-75
2023/05/18 04:31:28;;;;;;;5.78;1.80;;;5.70;71.30;;;;;;4968410;28;20046;-76
2023/05/18 04:33:54;;;;;;;3.42;1.73;;;5.70;71.40;;;;;;5012198;28;20044;-76
2023/05/18 04:36:24;;;;;;;6.95;1.67;;;5.70;71.60;;;;;;5015298;28;20033;-76
2023/05/18 04:38:50;;;;;;;3.88;1.60;;;5.70;71.60;;;;;;4996253;28;20120;-76
2023/05/18 04:41:19;;;;;;;3.38;1.58;;;5.70;71.60;;;;;;5016014;28;20033;-76
2023/05/18 04:43:46;;;;;;;3.03;1.33;;;5.80;71.90;;;;;;5009586;28;20096;-75
2023/05/18 04:46:12;;;;;;;7.47;1.98;;;5.80;72.00;;;;;;4989443;28;20042;-76
2023/05/18 04:48:38;;;;;;;5.05;1.90;;;5.80;72.00;;;;;;5001655;28;20048;-76
2023/05/18 04:51:03;;;;;;;3.85;1.90;;;5.80;72.10;;;;;;5015432;28;20046;-76
2023/05/18 04:53:32;;;;;;;6.82;2.20;;;5.90;72.20;;;;;;5004025;28;20128;-76
2023/05/18 04:55:59;;;;;;;5.57;3.45;;;5.90;72.30;;;;;;5005676;28;20030;-75
2023/05/18 04:58:26;;;;;;;6.05;2.55;;;6.00;72.40;;;;;;4996752;28;20112;-76
2023/05/18 05:00:52;;;;;;;7.68;2.67;;;6.00;72.40;;;;;;4992586;28;20047;-75
2023/05/18 05:03:17;;;;;;;8.20;2.85;;;6.00;72.40;;;;;;4993686;28;20030;-75
2023/05/18 05:05:43;;;;;;;8.55;2.75;;;6.10;72.50;;;;;;4978937;28;20030;-75
2023/05/18 05:08:08;;;;;;;5.15;2.38;;;6.10;72.50;;;;;;5010428;28;20033;-76
2023/05/18 05:10:34;;;;;;;6.75;2.47;;;6.20;72.50;;;;;;5012896;28;20033;-75
2023/05/18 05:12:59;;;;;;;6.40;1.95;;;6.30;72.40;;;;;;5012948;28;20151;-75
2023/05/18 05:15:25;;;;;;;5.10;1.92;;;6.40;72.50;;;;;;5010118;28;20048;-75
2023/05/18 05:17:50;;;;;;;8.00;2.42;;;6.40;72.40;;;;;;4996889;28;20037;-75
2023/05/18 05:20:16;;;;;;;3.95;2.08;;;6.60;72.30;;;;;;5009757;28;20033;-75
2023/05/18 05:22:42;;;;;;;5.45;1.92;;;6.70;72.30;;;;;;5012172;28;20041;-76
2023/05/18 05:25:07;;;;;;;5.53;2.10;;;6.70;72.10;;;;;;5023155;28;20053;-76
2023/05/18 05:27:33;;;;;;;5.95;1.80;;;6.80;72.00;;;;;;5013490;28;20060;-76
2023/05/18 05:29:59;;;;;;;4.93;2.00;;;6.90;71.90;;;;;;5009597;28;20132;-74
2023/05/18 05:32:24;;;;;;;8.82;2.05;;;7.00;71.80;;;;;;4992288;28;20045;-75
2023/05/18 05:34:50;;;;;;;2.67;1.65;;;7.10;71.60;;;;;;4968315;28;20049;-75
2023/05/18 05:37:16;;;;;;;5.90;2.28;;;7.20;71.50;;;;;;4996483;28;20041;-76
2023/05/18 05:39:42;;;;;;;8.00;1.98;;;7.30;71.30;;;;;;5012136;28;20095;-74
2023/05/18 05:42:07;;;;;;;5.82;1.80;;;7.40;71.30;;;;;;4996754;28;20117;-74
2023/05/18 05:44:33;;;;;;;8.00;2.10;;;7.50;71.20;;;;;;4995224;28;20457;-76
2023/05/18 05:46:58;;;;;;;8.57;1.90;;;7.60;71.00;;;;;;4993129;28;20041;-76
2023/05/18 05:49:24;;;;;;;5.25;2.17;;;7.70;71.00;;;;;;4999208;28;20121;-76
2023/05/18 05:51:50;;;;;;;7.28;2.10;;;7.80;70.80;;;;;;4985768;28;20056;-75
2023/05/18 05:54:15;;;;;;;5.55;1.85;;;7.90;70.70;;;;;;4963854;28;20104;-76
2023/05/18 05:56:42;;;;;;;6.38;1.83;;;8.00;70.60;;;;;;4970881;28;20108;-76
2023/05/18 05:59:07;;;;;;;6.28;1.63;;;8.10;70.50;;;;;;4953070;28;20095;-75
2023/05/18 06:01:33;;;;;;;7.47;2.15;;;8.20;70.30;;;;;;4970534;28;20037;-76
2023/05/18 06:04:00;;;;;;;5.95;1.92;;;8.30;70.30;;;;;;4978446;28;20130;-75
2023/05/18 06:06:26;;;;;;;7.38;2.25;;;8.40;70.10;;;;;;4974853;28;20517;-76
2023/05/18 06:08:51;;;;;;;4.45;1.98;;;8.50;70.00;;;;;;4975233;28;20512;-76
2023/05/18 06:11:17;;;;;;;6.70;1.98;;;8.60;69.80;;;;;;4962521;28;20038;-75
2023/05/18 06:13:42;;;;;;;8.05;1.60;;;8.70;69.70;;;;;;4959678;28;20088;-75
2023/05/18 06:16:08;;;;;;;7.93;2.13;;;8.80;69.60;;;;;;4958047;28;20038;-75
2023/05/18 06:18:33;;;;;;;5.25;1.40;;;8.90;69.40;;;;;;4958813;28;20095;-76
2023/05/18 06:20:59;;;;;;;9.10;1.60;;;9.00;69.30;;;;;;4960077;28;20057;-76
2023/05/18 06:23:25;;;;;;;4.40;1.65;;;9.10;69.20;;;;;;4972402;28;20055;-76
2023/05/18 06:25:50;;;;;;;5.53;1.30;;;9.20;69.00;;;;;;4984348;28;20030;-76
2023/05/18 06:28:16;;;;;;;6.45;2.28;;;9.30;68.90;;;;;;4985138;28;20034;-76
2023/05/18 06:30:42;;;;;;;7.60;1.63;;;9.40;68.70;;;;;;4971312;28;20041;-76
2023/05/18 06:33:08;;;;;;;7.50;1.60;;;9.50;68.40;;;;;;4940064;28;20120;-76
2023/05/18 06:35:33;;;;;;;3.97;2.15;;;9.60;68.30;;;;;;4992361;28;20029;-75
2023/05/18 06:37:59;;;;;;;6.55;1.70;;;9.70;68.00;;;;;;4996407;28;20045;-75
2023/05/18 06:40:24;;;;;;;6.03;1.45;;;9.90;67.80;;;;;;5014151;28;20128;-76
2023/05/18 06:42:50;;;;;;;6.43;2.08;;;10.00;67.60;;;;;;4982611;28;20046;-75
2023/05/18 06:45:16;;;;;;;7.70;1.38;;;10.10;67.30;;;;;;5001862;28;20034;-76
2023/05/18 07:16:14;;;;;;;6.85;1.80;;;11.30;64.60;;;;;;5018832;28;20728;-76
2023/05/18 07:18:41;;;;;;;8.63;1.65;;;11.40;64.60;;;;;;5014241;28;20041;-76
2023/05/18 07:21:06;;;;;;;4.15;1.38;;;11.50;64.30;;;;;;4991301;28;20470;-76
2023/05/18 07:26:54;;;;;;;4.25;1.50;;;11.70;63.90;;;;;;5012899;28;20095;-76
2023/05/18 07:29:19;;;;;;;7.38;2.10;;;11.80;63.90;;;;;;5005690;28;20033;-75
2023/05/18 07:31:45;;;;;;;6.88;1.73;;;11.90;63.60;;;;;;4983503;28;20057;-75
2023/05/18 07:34:10;;;;;;;4.72;1.48;;;12.10;63.40;;;;;;4972335;28;20121;-76
2023/05/18 07:36:36;;;;;;;4.15;1.30;;;12.20;63.10;;;;;;5029977;28;20037;-76
2023/05/18 07:39:02;;;;;;;7.45;1.90;;;12.30;62.80;;;;;;5015957;28;20048;-76
2023/05/18 07:41:27;;;;;;;6.80;1.52;;;12.50;62.70;;;;;;5002409;28;20555;-76
2023/05/18 07:43:53;;;;;;;8.52;2.03;;;12.60;62.40;;;;;;5013287;28;20676;-78
2023/05/18 07:46:19;;;;;;;4.97;1.88;;;12.80;62.10;;;;;;4996174;28;20065;-76
2023/05/18 07:48:45;;;;;;;4.97;1.85;;;13.00;61.90;;;;;;5001607;28;20026;-76
2023/05/18 07:51:11;;;;;;;7.18;2.08;;;13.10;61.60;;;;;;4978639;28;20046;-76
2023/05/18 07:53:36;;;;;;;6.93;1.75;;;13.30;61.30;;;;;;4995992;28;20613;-77
2023/05/18 07:56:03;;;;;;;6.75;2.30;;;13.50;60.90;;;;;;5018005;28;20124;-76
2023/05/18 07:58:28;;;;;;;10.25;2.40;;;13.60;61.00;;;;;;5011718;28;20058;-76
2023/05/18 08:00:54;;;;;;;8.93;2.10;;;13.80;60.30;;;;;;4977725;28;20072;-78
2023/05/18 08:03:19;;;;;;;6.90;2.47;;;13.90;59.90;;;;;;4966604;28;20447;-76
2023/05/18 08:05:45;;;;;;;6.50;2.28;;;14.10;59.60;;;;;;4944374;28;20497;-76
2023/05/18 08:08:13;;;;;;;4.18;1.80;;;14.30;59.30;;;;;;4964030;28;20038;-77
2023/05/18 08:10:40;;;;;;;9.95;1.77;;;14.50;59.10;;;;;;4965934;28;20773;-76
2023/05/18 08:13:05;;;;;;;10.13;2.30;;;14.60;58.80;;;;;;4959559;28;20400;-76
2023/05/18 08:15:31;;;;;;;5.90;1.58;;;14.80;58.50;;;;;;4991910;28;20034;-76
2023/05/18 08:17:56;;;;;;;6.43;1.80;;;14.90;58.20;;;;;;4936088;28;20124;-77
2023/05/18 08:20:24;;;;;;;11.32;1.92;;;15.00;57.90;;;;;;4998120;28;20046;-75
2023/05/18 08:22:50;;;;;;;3.90;1.40;;;15.20;57.70;;;;;;4982409;28;20034;-76
2023/05/18 08:25:16;;;;;;;6.43;1.80;;;15.30;57.30;;;;;;4965151;28;20453;-76
2023/05/18 08:27:41;;;;;;;7.00;1.30;;;15.50;57.20;;;;;;4996584;28;20058;-76
2023/05/18 08:30:07;;;;;;;6.43;1.52;;;15.60;56.80;;;;;;4965002;28;20029;-76
2023/05/18 08:32:35;;;;;;;6.28;1.35;;;15.70;56.50;;;;;;4968759;28;20139;-76
2023/05/18 08:35:03;;;;;;;6.18;2.00;;;15.80;56.20;;;;;;4965561;28;20052;-77
2023/05/18 08:37:29;;;;;;;8.52;2.03;;;15.90;55.80;;;;;;4961267;28;20737;-76
2023/05/18 08:39:55;;;;;;;10.30;1.60;;;16.10;55.50;;;;;;4987331;28;20492;-76
2023/05/18 08:42:21;;;;;;;8.73;2.28;;;16.10;55.30;;;;;;4942564;28;20118;-76
2023/05/18 08:44:51;;;;;;;8.23;1.70;;;16.20;55.00;;;;;;4979932;28;20034;-76
2023/05/18 08:47:16;;;;;;;6.25;1.50;;;16.30;54.60;;;;;;4970524;28;20172;-77
2023/05/18 08:49:42;;;;;;;8.90;1.58;;;16.40;54.40;;;;;;4959139;28;20072;-77
2023/05/18 08:52:08;;;;;;;7.35;1.52;;;16.40;54.10;;;;;;4958979;28;20030;-76
2023/05/18 08:54:35;;;;;;;6.13;1.58;;;16.50;54.00;;;;;;4956327;28;20699;-76
2023/05/18 08:57:02;;;;;;;7.90;1.80;;;16.60;53.90;;;;;;4974003;28;20041;-77
2023/05/18 08:59:29;;;;;;;3.03;1.30;;;16.80;53.60;;;;;;4941414;28;20061;-75
2023/05/18 09:01:55;;;;;;;5.75;1.90;;;17.00;53.30;;;;;;4954446;28;20042;-76
2023/05/18 09:04:21;;;;;;;6.75;1.88;;;17.20;53.20;;;;;;4976106;28;20743;-76
2023/05/18 09:06:47;;;;;;;6.35;1.33;;;17.40;52.70;;;;;;4975827;28;20697;-76
2023/05/18 09:09:13;;;;;;;6.40;1.42;;;17.60;52.50;;;;;;4954757;28;20041;-78
2023/05/18 09:11:38;;;;;;;6.43;1.40;;;17.70;51.90;;;;;;4959928;28;20038;-77
2023/05/18 09:14:04;;;;;;;8.20;1.80;;;17.90;51.70;;;;;;4972595;28;20060;-76
2023/05/18 09:16:30;;;;;;;5.22;1.25;;;18.10;51.40;;;;;;4975623;28;20037;-76
2023/05/18 09:18:56;;;;;;;10.07;1.38;;;18.30;51.10;;;;;;4960616;28;20048;-77
2023/05/18 09:21:22;;;;;;;3.58;1.58;;;18.40;50.60;;;;;;4943711;28;20666;-76
2023/05/18 09:23:47;;;;;;;5.65;1.80;;;18.50;50.30;;;;;;4957568;28;20038;-77
2023/05/18 09:26:13;;;;;;;5.35;1.50;;;18.60;50.20;;;;;;4935435;28;20060;-77
2023/05/18 09:28:39;;;;;;;4.85;1.55;;;18.70;50.00;;;;;;4967420;28;20031;-76
2023/05/18 09:31:07;;;;;;;6.43;1.38;;;18.80;49.70;;;;;;4945479;28;20034;-76
2023/05/18 09:33:35;;;;;;;4.65;1.80;;;18.90;49.50;;;;;;4956547;28;20488;-77
2023/05/18 09:36:00;;;;;;;5.68;1.30;;;19.00;49.30;;;;;;4973355;28;20043;-77
2023/05/18 09:38:26;;;;;;;5.13;1.30;;;19.00;48.90;;;;;;4995045;28;20034;-77
2023/05/18 09:40:52;;;;;;;6.35;1.33;;;19.10;48.80;;;;;;4943071;28;20030;-77
2023/05/18 09:43:18;;;;;;;6.38;1.40;;;19.20;48.50;;;;;;4969881;28;20112;-76
2023/05/18 09:45:45;;;;;;;8.48;1.63;;;19.30;48.20;;;;;;4973883;28;20116;-77
2023/05/18 09:48:10;;;;;;;5.22;1.55;;;19.40;47.90;;;;;;4966058;28;20436;-77
2023/05/18 09:50:36;;;;;;;5.03;1.55;;;19.50;47.80;;;;;;4950188;28;20593;-76
2023/05/18 09:53:08;;;;;;;4.75;1.55;;;19.70;47.50;;;;;;4973797;28;20042;-76
2023/05/18 09:55:38;;;;;;;4.95;1.38;;;19.80;46.90;;;;;;4958489;28;20037;-77
2023/05/18 09:58:06;;;;;;;3.77;1.73;;;19.90;46.90;;;;;;4976283;28;20026;-76
2023/05/18 10:00:31;;;;;;;4.03;1.20;;;20.00;46.80;;;;;;5012217;28;20056;-76
2023/05/18 10:02:57;;;;;;;4.72;1.27;;;20.20;46.70;;;;;;4998144;28;20030;-76
2023/05/18 10:05:26;;;;;;;3.83;1.33;;;20.40;46.30;;;;;;4992232;28;20046;-77
2023/05/18 10:07:55;;;;;;;3.75;1.42;;;20.50;45.70;;;;;;5001880;28;20033;-77
2023/05/18 10:10:25;;;;;;;6.30;1.35;;;20.70;45.40;;;;;;5009858;28;20046;-77
2023/05/18 10:12:51;;;;;;;8.25;1.70;;;20.80;45.20;;;;;;5012111;28;20041;-76
2023/05/18 10:15:19;;;;;;;5.55;1.40;;;21.00;45.10;;;;;;5013339;28;20041;-77
2023/05/18 10:17:45;;;;;;;5.10;1.13;;;21.20;44.80;;;;;;4974511;28;20129;-77
2023/05/18 10:20:11;;;;;;;5.53;1.33;;;21.30;44.50;;;;;;5005791;28;20554;-77
2023/05/18 10:22:36;;;;;;;4.97;1.52;;;21.50;44.20;;;;;;4997502;28;20041;-77
2023/05/18 10:25:03;;;;;;;4.97;1.48;;;21.70;43.90;;;;;;4996570;28;20058;-78
2023/05/18 10:27:29;;;;;;;5.00;1.88;;;21.80;43.70;;;;;;4998468;28;20416;-77
2023/05/18 10:29:56;;;;;;;5.03;1.60;;;21.90;43.20;;;;;;4996368;28;20496;-76
2023/05/18 10:32:22;;;;;;;6.35;1.42;;;22.00;42.90;;;;;;5009478;28;23159;-77
2023/05/18 10:34:48;;;;;;;7.63;1.48;;;22.20;42.70;;;;;;4993269;28;20488;-77
2023/05/18 10:37:14;;;;;;;4.63;1.55;;;22.40;42.50;;;;;;5008277;28;20045;-77
2023/05/18 10:39:39;;;;;;;5.65;1.70;;;22.40;42.10;;;;;;5001052;28;20515;-76
2023/05/18 10:42:07;;;;;;;6.85;1.42;;;22.30;41.80;;;;;;5000376;28;20034;-76
2023/05/18 10:44:32;;;;;;;3.60;1.42;;;22.20;41.70;;;;;;5001495;28;20044;-77
2023/05/18 10:46:58;;;;;;;5.43;1.58;;;22.40;41.80;;;;;;4999219;28;20045;-77
2023/05/18 10:49:24;;;;;;;4.57;1.30;;;22.50;41.40;;;;;;5017331;28;20037;-77
2023/05/18 10:51:55;;;;;;;5.10;1.35;;;22.70;41.40;;;;;;5000469;28;20168;-76
2023/05/18 10:54:24;;;;;;;5.32;1.73;;;22.90;41.10;;;;;;4990058;28;20138;-77
2023/05/18 10:56:51;;;;;;;6.88;1.90;;;23.10;41.00;;;;;;5016934;28;20033;-76
2023/05/18 10:59:17;;;;;;;5.40;1.60;;;23.30;40.60;;;;;;5008334;28;20815;-77
2023/05/18 11:01:43;;;;;;;6.05;1.55;;;23.40;40.40;;;;;;4982040;28;20034;-77
2023/05/18 11:04:08;;;;;;;4.55;1.35;;;23.60;40.20;;;;;;4982039;28;20068;-77
2023/05/18 11:06:34;;;;;;;5.55;1.40;;;23.70;39.80;;;;;;4969179;28;20129;-77
2023/05/18 11:09:00;;;;;;;3.30;1.40;;;23.80;40.20;;;;;;4998157;28;20034;-75
2023/05/18 11:11:30;;;;;;;6.05;1.52;;;23.90;39.30;;;;;;4999145;28;20045;-75
2023/05/18 11:14:01;;;;;;;8.43;1.30;;;24.00;39.10;;;;;;4999976;28;20051;-77
2023/05/18 11:16:34;;;;;;;4.45;2.05;;;24.10;38.20;;;;;;4983109;28;20042;-77
2023/05/18 11:19:06;;;;;;;4.80;1.52;;;24.10;37.90;;;;;;5004403;28;20068;-75
2023/05/18 11:21:34;;;;;;;4.63;1.38;;;24.00;37.80;;;;;;5001066;28;20755;-77
2023/05/18 11:24:28;;;;;;;3.08;1.23;;;24.00;38.10;;;;;;5017451;28;20084;-76
2023/05/18 11:26:55;;;;;;;7.88;1.80;;;24.10;37.30;;;;;;5013365;28;20036;-77
2023/05/18 11:29:21;;;;;;;5.05;1.48;;;24.10;38.00;;;;;;4979111;28;20044;-77
2023/05/18 11:31:53;;;;;;;4.50;1.80;;;24.20;38.00;;;;;;4997250;28;20099;-77
2023/05/18 11:34:49;;;;;;;6.00;1.83;;;24.30;37.40;;;;;;4981937;28;20092;-78
2023/05/18 11:37:41;;;;;;;6.15;1.30;;;24.40;36.60;;;;;;4998762;28;20029;-77
2023/05/18 11:40:10;;;;;;;6.30;1.50;;;24.50;36.50;;;;;;4993315;28;20045;-75
2023/05/18 11:42:36;;;;;;;4.25;1.42;;;24.60;37.40;;;;;;4997908;28;20037;-77
2023/05/18 11:45:08;;;;;;;5.47;1.63;;;24.70;37.50;;;;;;4983523;28;20037;-75
2023/05/18 11:47:35;;;;;;;5.60;1.42;;;24.90;36.90;;;;;;4983529;28;20045;-78
2023/05/18 11:50:00;;;;;;;5.90;1.92;;;25.00;36.90;;;;;;4980684;28;20041;-75
2023/05/18 11:52:26;;;;;;;5.97;1.33;;;25.10;36.70;;;;;;5015583;28;20132;-77
2023/05/18 11:54:53;;;;;;;11.00;1.50;;;25.20;36.50;;;;;;5013086;28;20029;-77
2023/05/18 11:57:20;;;;;;;5.93;1.70;;;25.30;37.00;;;;;;4981347;28;20426;-77
2023/05/18 11:59:46;;;;;;;3.45;1.45;;;25.40;36.30;;;;;;5006726;28;20088;-77
2023/05/18 12:02:17;;;;;;;5.75;1.30;;;25.50;36.00;;;;;;5012067;28;20175;-77
2023/05/18 12:04:45;;;;;;;7.63;1.50;;;25.50;35.90;;;;;;4997847;28;20090;-77
2023/05/18 12:07:11;;;;;;;4.03;1.25;;;25.60;35.70;;;;;;4973919;28;20033;-77
2023/05/18 12:09:40;;;;;;;4.47;1.33;;;25.70;35.50;;;;;;4985533;28;20045;-77
2023/05/18 12:12:06;;;;;;;3.95;1.45;;;25.70;35.30;;;;;;5011881;28;20053;-73
2023/05/18 12:14:33;;;;;;;6.28;1.80;;;25.70;35.00;;;;;;5013039;28;20124;-75
2023/05/18 12:16:58;;;;;;;5.82;1.10;;;25.80;34.90;;;;;;4999027;28;20045;-75
2023/05/18 12:19:24;;;;;;;5.22;1.38;;;25.90;34.90;;;;;;4978806;28;20085;-77
2023/05/18 12:21:49;;;;;;;5.38;2.05;;;26.10;34.70;;;;;;5011568;28;20115;-77
2023/05/18 12:24:15;;;;;;;6.15;1.83;;;26.30;34.60;;;;;;5015678;28;20049;-77
2023/05/18 12:26:41;;;;;;;4.03;1.20;;;26.40;34.40;;;;;;4980612;28;20108;-74
2023/05/18 12:29:07;;;;;;;3.50;1.02;;;26.50;34.30;;;;;;5002775;28;20041;-75
2023/05/18 12:31:32;;;;;;;2.85;1.00;;;26.50;33.90;;;;;;4965953;28;20391;-76
2023/05/18 12:34:00;;;;;;;4.63;1.10;;;26.60;33.80;;;;;;4979873;28;20091;-76
2023/05/18 12:36:26;;;;;;;6.07;1.40;;;26.50;33.50;;;;;;4989633;28;20057;-75
2023/05/18 12:38:51;;;;;;;7.68;1.27;;;26.50;33.40;;;;;;5015195;28;20021;-76
2023/05/18 12:41:21;;;;;;;9.52;1.83;;;26.50;34.00;;;;;;5013794;28;20041;-75
2023/05/18 12:43:47;;;;;;;2.92;1.40;;;26.50;33.10;;;;;;4999095;28;20128;-76
2023/05/18 12:46:12;;;;;;;6.07;1.90;;;26.50;33.20;;;;;;5012628;28;20037;-76
2023/05/18 12:48:43;;;;;;;7.38;1.63;;;26.50;33.10;;;;;;4996182;28;20040;-76
2023/05/18 12:51:17;;;;;;;7.70;1.63;;;26.60;33.20;;;;;;4999616;28;20041;-76
2023/05/18 12:53:42;;;;;;;3.60;1.60;;;26.80;32.90;;;;;;4997837;28;20485;-75
2023/05/18 12:56:10;;;;;;;4.57;1.60;;;26.90;33.10;;;;;;4975920;28;20034;-76
2023/05/18 12:58:36;;;;;;;4.47;1.20;;;26.90;33.00;;;;;;5015760;28;20084;-75
2023/05/18 13:01:08;;;;;;;4.30;1.60;;;27.00;33.00;;;;;;5015400;28;20121;-74
2023/05/18 13:03:34;;;;;;;5.53;1.75;;;27.10;32.70;;;;;;4999451;28;20116;-76
2023/05/18 13:06:06;;;;;;;5.32;1.45;;;27.20;32.90;;;;;;4998282;28;20535;-76
2023/05/18 13:08:33;;;;;;;5.72;1.48;;;27.40;32.80;;;;;;4977727;28;20036;-76
2023/05/18 13:11:06;;;;;;;5.25;1.80;;;27.50;32.70;;;;;;5006759;28;20037;-76
2023/05/18 13:13:32;;;;;;;7.65;1.40;;;27.30;31.90;;;;;;5011066;28;20128;-75
2023/05/18 13:15:58;;;;;;;4.43;1.52;;;27.30;32.30;;;;;;5007025;28;20036;-75
2023/05/18 13:18:24;;;;;;;8.10;1.45;;;27.20;32.30;;;;;;5012837;28;20038;-74
2023/05/18 13:20:51;;;;;;;5.82;1.50;;;27.30;32.30;;;;;;4994293;28;20323;-75
2023/05/18 13:23:18;;;;;;;4.65;1.48;;;27.40;32.00;;;;;;5013477;28;20044;-75